sensor_id;sensor_type;location;lat;lon;timestamp;P1;durP1;ratioP1;P2;durP2;ratioP2
13343;SDS011;6741;48.964;9.406;2023-09-19T00:00:05;0.90;;;0.70;;
13343;SDS011;6741;48.964;9.406;2023-09-19T00:02:38;0.65;;;0.65;;
13343;SDS011;6741;48.964;9.406;2023-09-19T00:05:05;0.93;;;0.70;;
13343;SDS011;6741;48.964;9.406;2023-09-19T00:07:32;1.63;;;0.80;;
13343;SDS011;6741;48.964;9.406;2023-09-19T00:10:01;0.85;;;0.85;;
13343;SDS011;6741;48.964;9.406;2023-09-19T00:12:29;0.80;;;0.80;;
13343;SDS011;6741;48.964;9.406;2023-09-19T00:14:57;1.50;;;1.00;;
13343;SDS011;6741;48.964;9.406;2023-09-19T00:17:27;1.52;;;0.68;;
13343;SDS011;6741;48.964;9.406;2023-09-19T00:19:57;0.80;;;0.80;;
13343;SDS011;6741;48.964;9.406;2023-09-19T00:22:23;0.98;;;0.98;;
13343;SDS011;6741;48.964;9.406;2023-09-19T00:24:51;4.97;;;1.42;;
13343;SDS011;6741;48.964;9.406;2023-09-19T00:27:20;0.90;;;0.80;;
13343;SDS011;6741;48.964;9.406;2023-09-19T00:29:47;1.48;;;1.05;;
13343;SDS011;6741;48.964;9.406;2023-09-19T00:32:14;0.70;;;0.70;;
13343;SDS011;6741;48.964;9.406;2023-09-19T00:34:42;1.15;;;1.05;;
13343;SDS011;6741;48.964;9.406;2023-09-19T00:37:09;1.85;;;1.17;;
13343;SDS011;6741;48.964;9.406;2023-09-19T00:39:36;0.70;;;0.70;;
13343;SDS011;6741;48.964;9.406;2023-09-19T00:42:03;1.23;;;0.88;;
13343;SDS011;6741;48.964;9.406;2023-09-19T00:44:30;2.20;;;0.93;;
13343;SDS011;6741;48.964;9.406;2023-09-19T00:46:59;0.70;;;0.70;;
13343;SDS011;6741;48.964;9.406;2023-09-19T00:49:27;1.63;;;0.93;;
13343;SDS011;6741;48.964;9.406;2023-09-19T00:51:57;0.80;;;0.80;;
13343;SDS011;6741;48.964;9.406;2023-09-19T00:54:24;1.70;;;1.10;;
13343;SDS011;6741;48.964;9.406;2023-09-19T00:56:54;1.13;;;1.02;;
13343;SDS011;6741;48.964;9.406;2023-09-19T00:59:22;2.35;;;1.30;;
13343;SDS011;6741;48.964;9.406;2023-09-19T01:01:49;2.25;;;0.90;;
13343;SDS011;6741;48.964;9.406;2023-09-19T01:04:19;2.03;;;0.90;;
13343;SDS011;6741;48.964;9.406;2023-09-19T01:06:46;0.80;;;0.80;;
13343;SDS011;6741;48.964;9.406;2023-09-19T01:09:19;1.05;;;1.00;;
13343;SDS011;6741;48.964;9.406;2023-09-19T01:11:47;0.90;;;0.82;;
13343;SDS011;6741;48.964;9.406;2023-09-19T01:14:20;0.90;;;0.90;;
13343;SDS011;6741;48.964;9.406;2023-09-19T01:16:56;0.93;;;0.93;;
13343;SDS011;6741;48.964;9.406;2023-09-19T01:22:50;1.35;;;0.95;;
13343;SDS011;6741;48.964;9.406;2023-09-19T01:31:24;1.00;;;0.90;;
13343;SDS011;6741;48.964;9.406;2023-09-19T01:33:55;1.05;;;0.95;;
13343;SDS011;6741;48.964;9.406;2023-09-19T01:36:24;0.82;;;0.82;;
13343;SDS011;6741;48.964;9.406;2023-09-19T01:38:55;0.73;;;0.70;;
13343;SDS011;6741;48.964;9.406;2023-09-19T01:41:38;0.70;;;0.70;;
13343;SDS011;6741;48.964;9.406;2023-09-19T01:44:17;0.73;;;0.73;;
13343;SDS011;6741;48.964;9.406;2023-09-19T01:46:52;3.22;;;1.42;;
13343;SDS011;6741;48.964;9.406;2023-09-19T01:49:27;1.13;;;0.80;;
13343;SDS011;6741;48.964;9.406;2023-09-19T01:52:04;3.10;;;1.17;;
13343;SDS011;6741;48.964;9.406;2023-09-19T01:54:40;1.15;;;0.90;;
13343;SDS011;6741;48.964;9.406;2023-09-19T01:57:14;0.75;;;0.70;;
13343;SDS011;6741;48.964;9.406;2023-09-19T01:59:48;1.10;;;0.75;;
13343;SDS011;6741;48.964;9.406;2023-09-19T02:02:19;0.90;;;0.90;;
13343;SDS011;6741;48.964;9.406;2023-09-19T02:04:48;1.73;;;0.90;;
13343;SDS011;6741;48.964;9.406;2023-09-19T02:07:15;3.65;;;1.00;;
13343;SDS011;6741;48.964;9.406;2023-09-19T02:09:42;1.58;;;0.90;;
13343;SDS011;6741;48.964;9.406;2023-09-19T02:12:09;0.93;;;0.90;;
13343;SDS011;6741;48.964;9.406;2023-09-19T02:14:36;0.70;;;0.70;;
13343;SDS011;6741;48.964;9.406;2023-09-19T02:17:03;1.40;;;0.80;;
13343;SDS011;6741;48.964;9.406;2023-09-19T02:19:37;0.80;;;0.80;;
13343;SDS011;6741;48.964;9.406;2023-09-19T02:22:06;3.88;;;1.10;;
13343;SDS011;6741;48.964;9.406;2023-09-19T02:24:35;0.77;;;0.65;;
13343;SDS011;6741;48.964;9.406;2023-09-19T02:27:03;0.82;;;0.82;;
13343;SDS011;6741;48.964;9.406;2023-09-19T02:29:30;2.03;;;0.98;;
13343;SDS011;6741;48.964;9.406;2023-09-19T02:31:57;0.70;;;0.70;;
13343;SDS011;6741;48.964;9.406;2023-09-19T02:34:24;1.13;;;0.80;;
13343;SDS011;6741;48.964;9.406;2023-09-19T02:36:52;0.95;;;0.95;;
13343;SDS011;6741;48.964;9.406;2023-09-19T02:39:21;1.67;;;0.70;;
13343;SDS011;6741;48.964;9.406;2023-09-19T02:41:48;0.95;;;0.65;;
13343;SDS011;6741;48.964;9.406;2023-09-19T02:44:15;0.73;;;0.65;;
13343;SDS011;6741;48.964;9.406;2023-09-19T02:46:45;1.98;;;0.88;;
13343;SDS011;6741;48.964;9.406;2023-09-19T02:49:12;0.70;;;0.70;;
13343;SDS011;6741;48.964;9.406;2023-09-19T02:51:39;1.00;;;1.00;;
13343;SDS011;6741;48.964;9.406;2023-09-19T02:54:08;1.63;;;0.90;;
13343;SDS011;6741;48.964;9.406;2023-09-19T02:56:36;1.55;;;0.85;;
13343;SDS011;6741;48.964;9.406;2023-09-19T02:59:03;1.23;;;0.77;;
13343;SDS011;6741;48.964;9.406;2023-09-19T03:01:31;1.65;;;0.85;;
13343;SDS011;6741;48.964;9.406;2023-09-19T03:03:58;0.70;;;0.70;;
13343;SDS011;6741;48.964;9.406;2023-09-19T03:06:25;0.80;;;0.80;;
13343;SDS011;6741;48.964;9.406;2023-09-19T03:08:52;1.05;;;0.75;;
13343;SDS011;6741;48.964;9.406;2023-09-19T03:11:22;0.98;;;0.98;;
13343;SDS011;6741;48.964;9.406;2023-09-19T03:13:52;1.13;;;0.90;;
13343;SDS011;6741;48.964;9.406;2023-09-19T03:16:20;0.80;;;0.80;;
13343;SDS011;6741;48.964;9.406;2023-09-19T03:18:48;0.60;;;0.60;;
13343;SDS011;6741;48.964;9.406;2023-09-19T03:21:15;0.88;;;0.88;;
13343;SDS011;6741;48.964;9.406;2023-09-19T03:23:44;1.00;;;0.93;;
13343;SDS011;6741;48.964;9.406;2023-09-19T03:26:11;1.00;;;0.85;;
13343;SDS011;6741;48.964;9.406;2023-09-19T03:28:42;0.55;;;0.55;;
13343;SDS011;6741;48.964;9.406;2023-09-19T03:31:11;1.75;;;0.90;;
13343;SDS011;6741;48.964;9.406;2023-09-19T03:33:38;1.15;;;0.93;;
13343;SDS011;6741;48.964;9.406;2023-09-19T03:36:05;2.53;;;0.88;;
13343;SDS011;6741;48.964;9.406;2023-09-19T03:38:32;0.88;;;0.75;;
13343;SDS011;6741;48.964;9.406;2023-09-19T03:41:00;1.48;;;1.10;;
13343;SDS011;6741;48.964;9.406;2023-09-19T03:43:27;3.35;;;0.82;;
13343;SDS011;6741;48.964;9.406;2023-09-19T03:45:55;0.90;;;0.90;;
13343;SDS011;6741;48.964;9.406;2023-09-19T03:48:22;1.27;;;1.17;;
13343;SDS011;6741;48.964;9.406;2023-09-19T03:50:49;1.33;;;1.02;;
13343;SDS011;6741;48.964;9.406;2023-09-19T03:53:16;1.23;;;1.13;;
13343;SDS011;6741;48.964;9.406;2023-09-19T03:55:44;2.17;;;1.13;;
13343;SDS011;6741;48.964;9.406;2023-09-19T03:58:11;1.10;;;1.00;;
13343;SDS011;6741;48.964;9.406;2023-09-19T04:00:38;1.02;;;1.00;;
13343;SDS011;6741;48.964;9.406;2023-09-19T04:03:07;1.02;;;1.00;;
13343;SDS011;6741;48.964;9.406;2023-09-19T04:05:34;2.90;;;1.40;;
13343;SDS011;6741;48.964;9.406;2023-09-19T04:08:00;1.13;;;1.08;;
13343;SDS011;6741;48.964;9.406;2023-09-19T04:10:27;1.25;;;0.90;;
13343;SDS011;6741;48.964;9.406;2023-09-19T04:12:55;0.82;;;0.82;;
13343;SDS011;6741;48.964;9.406;2023-09-19T04:15:22;1.30;;;1.15;;
13343;SDS011;6741;48.964;9.406;2023-09-19T04:17:50;1.13;;;1.02;;
13343;SDS011;6741;48.964;9.406;2023-09-19T04:20:18;0.80;;;0.80;;
13343;SDS011;6741;48.964;9.406;2023-09-19T04:22:48;0.77;;;0.77;;
13343;SDS011;6741;48.964;9.406;2023-09-19T04:25:15;1.25;;;1.13;;
13343;SDS011;6741;48.964;9.406;2023-09-19T04:27:43;1.10;;;1.00;;
13343;SDS011;6741;48.964;9.406;2023-09-19T04:30:11;0.85;;;0.73;;
13343;SDS011;6741;48.964;9.406;2023-09-19T04:32:39;1.10;;;1.00;;
13343;SDS011;6741;48.964;9.406;2023-09-19T04:35:07;1.40;;;1.30;;
13343;SDS011;6741;48.964;9.406;2023-09-19T04:37:37;1.20;;;1.10;;
13343;SDS011;6741;48.964;9.406;2023-09-19T04:40:06;1.52;;;1.10;;
13343;SDS011;6741;48.964;9.406;2023-09-19T04:42:38;1.30;;;1.20;;
13343;SDS011;6741;48.964;9.406;2023-09-19T04:45:06;2.53;;;1.40;;
13343;SDS011;6741;48.964;9.406;2023-09-19T04:47:35;1.90;;;1.30;;
13343;SDS011;6741;48.964;9.406;2023-09-19T04:50:04;2.47;;;1.58;;
13343;SDS011;6741;48.964;9.406;2023-09-19T04:52:41;1.88;;;1.20;;
13343;SDS011;6741;48.964;9.406;2023-09-19T04:55:09;1.17;;;1.08;;
13343;SDS011;6741;48.964;9.406;2023-09-19T04:57:42;1.98;;;1.42;;
13343;SDS011;6741;48.964;9.406;2023-09-19T05:00:10;1.55;;;1.45;;
13343;SDS011;6741;48.964;9.406;2023-09-19T05:02:40;1.95;;;1.52;;
13343;SDS011;6741;48.964;9.406;2023-09-19T05:05:07;2.15;;;1.67;;
13343;SDS011;6741;48.964;9.406;2023-09-19T05:07:36;1.95;;;1.55;;
13343;SDS011;6741;48.964;9.406;2023-09-19T05:10:06;1.30;;;1.20;;
13343;SDS011;6741;48.964;9.406;2023-09-19T05:12:34;2.28;;;1.65;;
13343;SDS011;6741;48.964;9.406;2023-09-19T05:15:01;1.73;;;1.55;;
13343;SDS011;6741;48.964;9.406;2023-09-19T05:17:28;1.83;;;1.65;;
13343;SDS011;6741;48.964;9.406;2023-09-19T05:19:56;1.33;;;1.20;;
13343;SDS011;6741;48.964;9.406;2023-09-19T05:22:23;2.05;;;1.55;;
13343;SDS011;6741;48.964;9.406;2023-09-19T05:24:50;3.35;;;2.10;;
13343;SDS011;6741;48.964;9.406;2023-09-19T05:27:19;2.80;;;1.98;;
13343;SDS011;6741;48.964;9.406;2023-09-19T05:29:47;2.20;;;2.00;;
13343;SDS011;6741;48.964;9.406;2023-09-19T05:32:14;3.35;;;1.88;;
13343;SDS011;6741;48.964;9.406;2023-09-19T05:34:41;4.20;;;2.30;;
13343;SDS011;6741;48.964;9.406;2023-09-19T05:37:08;2.22;;;1.95;;
13343;SDS011;6741;48.964;9.406;2023-09-19T05:39:34;4.43;;;2.03;;
13343;SDS011;6741;48.964;9.406;2023-09-19T05:42:02;2.55;;;2.35;;
13343;SDS011;6741;48.964;9.406;2023-09-19T05:44:30;2.15;;;2.05;;
13343;SDS011;6741;48.964;9.406;2023-09-19T05:46:58;2.50;;;2.22;;
13343;SDS011;6741;48.964;9.406;2023-09-19T05:49:25;3.95;;;2.42;;
13343;SDS011;6741;48.964;9.406;2023-09-19T05:51:52;5.95;;;2.90;;
13343;SDS011;6741;48.964;9.406;2023-09-19T05:54:21;2.05;;;1.83;;
13343;SDS011;6741;48.964;9.406;2023-09-19T05:56:48;3.97;;;2.35;;
13343;SDS011;6741;48.964;9.406;2023-09-19T05:59:17;4.05;;;2.50;;
13343;SDS011;6741;48.964;9.406;2023-09-19T06:01:45;3.20;;;2.70;;
13343;SDS011;6741;48.964;9.406;2023-09-19T06:04:12;2.60;;;2.40;;
13343;SDS011;6741;48.964;9.406;2023-09-19T06:06:39;2.78;;;2.50;;
13343;SDS011;6741;48.964;9.406;2023-09-19T06:09:06;4.30;;;2.40;;
13343;SDS011;6741;48.964;9.406;2023-09-19T06:11:34;2.85;;;2.40;;
13343;SDS011;6741;48.964;9.406;2023-09-19T06:14:01;2.85;;;2.50;;
13343;SDS011;6741;48.964;9.406;2023-09-19T06:16:28;3.28;;;2.58;;
13343;SDS011;6741;48.964;9.406;2023-09-19T06:18:56;2.50;;;2.30;;
13343;SDS011;6741;48.964;9.406;2023-09-19T06:21:24;2.47;;;2.05;;
13343;SDS011;6741;48.964;9.406;2023-09-19T06:23:51;4.13;;;2.45;;
13343;SDS011;6741;48.964;9.406;2023-09-19T06:26:19;4.18;;;2.30;;
13343;SDS011;6741;48.964;9.406;2023-09-19T06:28:45;2.47;;;2.28;;
13343;SDS011;6741;48.964;9.406;2023-09-19T06:31:12;3.55;;;2.53;;
13343;SDS011;6741;48.964;9.406;2023-09-19T06:33:39;2.75;;;2.55;;
13343;SDS011;6741;48.964;9.406;2023-09-19T06:36:07;2.78;;;2.58;;
13343;SDS011;6741;48.964;9.406;2023-09-19T06:38:34;2.85;;;2.40;;
13343;SDS011;6741;48.964;9.406;2023-09-19T06:41:04;3.03;;;2.03;;
13343;SDS011;6741;48.964;9.406;2023-09-19T06:43:32;3.10;;;2.80;;
13343;SDS011;6741;48.964;9.406;2023-09-19T06:46:00;2.30;;;2.10;;
13343;SDS011;6741;48.964;9.406;2023-09-19T06:48:27;4.13;;;2.05;;
13343;SDS011;6741;48.964;9.406;2023-09-19T06:50:55;3.05;;;2.30;;
13343;SDS011;6741;48.964;9.406;2023-09-19T06:53:24;4.40;;;2.20;;
13343;SDS011;6741;48.964;9.406;2023-09-19T06:55:51;2.28;;;2.08;;
13343;SDS011;6741;48.964;9.406;2023-09-19T06:58:19;2.10;;;1.90;;
13343;SDS011;6741;48.964;9.406;2023-09-19T07:00:46;3.75;;;2.10;;
13343;SDS011;6741;48.964;9.406;2023-09-19T07:03:15;2.03;;;1.80;;
13343;SDS011;6741;48.964;9.406;2023-09-19T07:05:43;2.85;;;2.08;;
13343;SDS011;6741;48.964;9.406;2023-09-19T07:08:10;2.00;;;1.80;;
13343;SDS011;6741;48.964;9.406;2023-09-19T07:10:39;2.13;;;1.90;;
13343;SDS011;6741;48.964;9.406;2023-09-19T07:13:07;3.38;;;2.50;;
13343;SDS011;6741;48.964;9.406;2023-09-19T07:18:03;2.60;;;1.75;;
13343;SDS011;6741;48.964;9.406;2023-09-19T07:20:31;2.67;;;1.90;;
13343;SDS011;6741;48.964;9.406;2023-09-19T07:22:59;1.92;;;1.63;;
13343;SDS011;6741;48.964;9.406;2023-09-19T07:25:26;2.53;;;1.92;;
13343;SDS011;6741;48.964;9.406;2023-09-19T07:27:55;2.00;;;1.80;;
13343;SDS011;6741;48.964;9.406;2023-09-19T07:30:25;3.35;;;1.73;;
13343;SDS011;6741;48.964;9.406;2023-09-19T07:32:53;2.17;;;1.70;;
13343;SDS011;6741;48.964;9.406;2023-09-19T07:35:20;3.83;;;2.17;;
13343;SDS011;6741;48.964;9.406;2023-09-19T07:37:47;2.65;;;1.63;;
13343;SDS011;6741;48.964;9.406;2023-09-19T07:40:14;3.78;;;1.70;;
13343;SDS011;6741;48.964;9.406;2023-09-19T07:42:42;2.88;;;2.38;;
13343;SDS011;6741;48.964;9.406;2023-09-19T07:45:10;2.50;;;1.75;;
13343;SDS011;6741;48.964;9.406;2023-09-19T07:47:39;2.10;;;1.60;;
13343;SDS011;6741;48.964;9.406;2023-09-19T07:50:07;2.80;;;1.50;;
13343;SDS011;6741;48.964;9.406;2023-09-19T07:52:34;2.25;;;1.58;;
13343;SDS011;6741;48.964;9.406;2023-09-19T07:55:01;3.58;;;1.67;;
13343;SDS011;6741;48.964;9.406;2023-09-19T07:57:34;2.28;;;1.50;;
13343;SDS011;6741;48.964;9.406;2023-09-19T08:00:01;1.25;;;1.13;;
13343;SDS011;6741;48.964;9.406;2023-09-19T08:02:31;1.50;;;1.40;;
13343;SDS011;6741;48.964;9.406;2023-09-19T08:05:00;2.55;;;1.30;;
13343;SDS011;6741;48.964;9.406;2023-09-19T08:07:31;1.83;;;1.45;;
13343;SDS011;6741;48.964;9.406;2023-09-19T08:09:58;2.42;;;1.40;;
13343;SDS011;6741;48.964;9.406;2023-09-19T08:12:25;1.63;;;1.08;;
13343;SDS011;6741;48.964;9.406;2023-09-19T08:14:52;1.50;;;1.27;;
13343;SDS011;6741;48.964;9.406;2023-09-19T08:17:20;1.52;;;1.08;;
13343;SDS011;6741;48.964;9.406;2023-09-19T08:19:49;1.70;;;0.90;;
13343;SDS011;6741;48.964;9.406;2023-09-19T08:22:17;2.60;;;1.52;;
13343;SDS011;6741;48.964;9.406;2023-09-19T08:24:45;3.67;;;1.25;;
13343;SDS011;6741;48.964;9.406;2023-09-19T08:27:13;1.58;;;1.30;;
13343;SDS011;6741;48.964;9.406;2023-09-19T08:29:40;2.95;;;1.58;;
13343;SDS011;6741;48.964;9.406;2023-09-19T08:32:07;1.48;;;1.05;;
13343;SDS011;6741;48.964;9.406;2023-09-19T08:34:34;4.38;;;1.25;;
13343;SDS011;6741;48.964;9.406;2023-09-19T08:37:04;1.35;;;0.98;;
13343;SDS011;6741;48.964;9.406;2023-09-19T08:39:32;2.20;;;0.88;;
13343;SDS011;6741;48.964;9.406;2023-09-19T08:42:01;1.23;;;0.90;;
13343;SDS011;6741;48.964;9.406;2023-09-19T08:44:29;1.02;;;0.93;;
13343;SDS011;6741;48.964;9.406;2023-09-19T08:46:59;1.38;;;0.82;;
13343;SDS011;6741;48.964;9.406;2023-09-19T08:49:36;3.53;;;1.27;;
13343;SDS011;6741;48.964;9.406;2023-09-19T08:52:10;2.97;;;1.00;;
13343;SDS011;6741;48.964;9.406;2023-09-19T08:54:46;1.88;;;1.15;;
13343;SDS011;6741;48.964;9.406;2023-09-19T08:57:17;1.95;;;1.17;;
13343;SDS011;6741;48.964;9.406;2023-09-19T08:59:47;1.05;;;0.88;;
13343;SDS011;6741;48.964;9.406;2023-09-19T09:02:15;1.27;;;0.90;;
13343;SDS011;6741;48.964;9.406;2023-09-19T09:04:44;1.30;;;0.77;;
13343;SDS011;6741;48.964;9.406;2023-09-19T09:07:14;1.20;;;1.10;;
13343;SDS011;6741;48.964;9.406;2023-09-19T09:09:41;0.75;;;0.73;;
13343;SDS011;6741;48.964;9.406;2023-09-19T09:12:10;1.50;;;1.30;;
13343;SDS011;6741;48.964;9.406;2023-09-19T09:14:38;0.80;;;0.70;;
13343;SDS011;6741;48.964;9.406;2023-09-19T09:17:06;1.23;;;1.05;;
13343;SDS011;6741;48.964;9.406;2023-09-19T09:19:33;0.82;;;0.82;;
13343;SDS011;6741;48.964;9.406;2023-09-19T09:22:07;0.75;;;0.75;;
13343;SDS011;6741;48.964;9.406;2023-09-19T09:24:36;1.10;;;1.00;;
13343;SDS011;6741;48.964;9.406;2023-09-19T09:27:05;1.63;;;1.02;;
13343;SDS011;6741;48.964;9.406;2023-09-19T09:29:41;2.95;;;0.98;;
13343;SDS011;6741;48.964;9.406;2023-09-19T09:32:16;0.65;;;0.65;;
13343;SDS011;6741;48.964;9.406;2023-09-19T09:34:45;2.00;;;1.00;;
13343;SDS011;6741;48.964;9.406;2023-09-19T09:37:13;2.08;;;0.88;;
13343;SDS011;6741;48.964;9.406;2023-09-19T09:39:50;2.15;;;0.90;;
13343;SDS011;6741;48.964;9.406;2023-09-19T09:42:31;1.17;;;0.93;;
13343;SDS011;6741;48.964;9.406;2023-09-19T09:45:13;1.23;;;1.10;;
13343;SDS011;6741;48.964;9.406;2023-09-19T09:47:41;3.20;;;1.25;;
13343;SDS011;6741;48.964;9.406;2023-09-19T09:50:23;2.25;;;1.20;;
13343;SDS011;6741;48.964;9.406;2023-09-19T09:53:05;1.30;;;0.90;;
13343;SDS011;6741;48.964;9.406;2023-09-19T09:56:00;1.48;;;1.00;;
13343;SDS011;6741;48.964;9.406;2023-09-19T09:58:31;1.10;;;1.10;;
13343;SDS011;6741;48.964;9.406;2023-09-19T10:00:58;1.50;;;1.00;;
13343;SDS011;6741;48.964;9.406;2023-09-19T10:03:35;1.10;;;1.00;;
13343;SDS011;6741;48.964;9.406;2023-09-19T10:06:09;1.02;;;0.82;;
13343;SDS011;6741;48.964;9.406;2023-09-19T10:08:58;1.67;;;0.70;;
13343;SDS011;6741;48.964;9.406;2023-09-19T10:11:39;5.68;;;1.10;;
13343;SDS011;6741;48.964;9.406;2023-09-19T10:14:09;2.83;;;1.08;;
13343;SDS011;6741;48.964;9.406;2023-09-19T10:16:37;1.20;;;0.88;;
13343;SDS011;6741;48.964;9.406;2023-09-19T10:19:09;2.38;;;1.00;;
13343;SDS011;6741;48.964;9.406;2023-09-19T10:21:40;1.95;;;0.80;;
13343;SDS011;6741;48.964;9.406;2023-09-19T10:24:10;1.23;;;1.13;;
13343;SDS011;6741;48.964;9.406;2023-09-19T10:26:39;1.13;;;1.00;;
13343;SDS011;6741;48.964;9.406;2023-09-19T10:29:09;1.58;;;1.00;;
13343;SDS011;6741;48.964;9.406;2023-09-19T10:31:36;0.98;;;0.88;;
13343;SDS011;6741;48.964;9.406;2023-09-19T10:34:06;2.30;;;1.08;;
13343;SDS011;6741;48.964;9.406;2023-09-19T10:36:35;0.80;;;0.80;;
13343;SDS011;6741;48.964;9.406;2023-09-19T10:39:04;0.90;;;0.90;;
13343;SDS011;6741;48.964;9.406;2023-09-19T10:41:34;2.03;;;1.13;;
13343;SDS011;6741;48.964;9.406;2023-09-19T10:44:04;0.90;;;0.82;;
13343;SDS011;6741;48.964;9.406;2023-09-19T10:46:31;1.20;;;0.80;;
13343;SDS011;6741;48.964;9.406;2023-09-19T10:48:58;0.77;;;0.70;;
13343;SDS011;6741;48.964;9.406;2023-09-19T10:51:27;1.00;;;1.00;;
13343;SDS011;6741;48.964;9.406;2023-09-19T10:53:58;2.05;;;1.00;;
13343;SDS011;6741;48.964;9.406;2023-09-19T10:56:33;1.10;;;0.90;;
13343;SDS011;6741;48.964;9.406;2023-09-19T10:59:08;1.45;;;1.02;;
13343;SDS011;6741;48.964;9.406;2023-09-19T11:01:44;1.35;;;1.10;;
13343;SDS011;6741;48.964;9.406;2023-09-19T11:04:26;0.77;;;0.77;;
13343;SDS011;6741;48.964;9.406;2023-09-19T11:07:04;1.35;;;1.08;;
13343;SDS011;6741;48.964;9.406;2023-09-19T11:09:43;1.77;;;1.05;;
13343;SDS011;6741;48.964;9.406;2023-09-19T11:12:12;2.40;;;1.05;;
13343;SDS011;6741;48.964;9.406;2023-09-19T11:15:03;0.98;;;0.65;;
13343;SDS011;6741;48.964;9.406;2023-09-19T11:17:32;1.02;;;0.70;;
13343;SDS011;6741;48.964;9.406;2023-09-19T11:20:16;1.23;;;0.95;;
13343;SDS011;6741;48.964;9.406;2023-09-19T11:25:51;0.90;;;0.82;;
13343;SDS011;6741;48.964;9.406;2023-09-19T11:28:34;2.28;;;1.15;;
13343;SDS011;6741;48.964;9.406;2023-09-19T11:40:31;1.92;;;1.00;;
13343;SDS011;6741;48.964;9.406;2023-09-19T11:42:58;3.22;;;1.10;;
13343;SDS011;6741;48.964;9.406;2023-09-19T11:48:47;3.13;;;1.05;;
13343;SDS011;6741;48.964;9.406;2023-09-19T11:51:16;0.77;;;0.77;;
13343;SDS011;6741;48.964;9.406;2023-09-19T11:53:51;3.08;;;1.20;;
13343;SDS011;6741;48.964;9.406;2023-09-19T11:56:20;1.23;;;0.90;;
13343;SDS011;6741;48.964;9.406;2023-09-19T11:58:49;1.08;;;0.95;;
13343;SDS011;6741;48.964;9.406;2023-09-19T12:01:21;1.15;;;1.05;;
13343;SDS011;6741;48.964;9.406;2023-09-19T12:03:52;1.45;;;1.00;;
13343;SDS011;6741;48.964;9.406;2023-09-19T12:06:23;1.83;;;1.25;;
13343;SDS011;6741;48.964;9.406;2023-09-19T12:08:51;2.15;;;1.10;;
13343;SDS011;6741;48.964;9.406;2023-09-19T12:11:19;2.90;;;1.00;;
13343;SDS011;6741;48.964;9.406;2023-09-19T12:13:48;1.67;;;0.82;;
13343;SDS011;6741;48.964;9.406;2023-09-19T12:16:19;1.25;;;1.00;;
13343;SDS011;6741;48.964;9.406;2023-09-19T12:18:48;0.77;;;0.77;;
13343;SDS011;6741;48.964;9.406;2023-09-19T12:21:23;0.57;;;0.57;;
13343;SDS011;6741;48.964;9.406;2023-09-19T12:23:58;1.25;;;1.00;;
13343;SDS011;6741;48.964;9.406;2023-09-19T12:26:26;0.82;;;0.70;;
13343;SDS011;6741;48.964;9.406;2023-09-19T12:28:54;0.80;;;0.75;;
13343;SDS011;6741;48.964;9.406;2023-09-19T12:31:22;4.20;;;1.15;;
13343;SDS011;6741;48.964;9.406;2023-09-19T12:33:53;4.57;;;0.70;;
13343;SDS011;6741;48.964;9.406;2023-09-19T12:36:22;0.80;;;0.80;;
13343;SDS011;6741;48.964;9.406;2023-09-19T12:38:55;1.20;;;0.82;;
13343;SDS011;6741;48.964;9.406;2023-09-19T12:41:24;3.20;;;1.17;;
13343;SDS011;6741;48.964;9.406;2023-09-19T12:43:51;0.80;;;0.80;;
13343;SDS011;6741;48.964;9.406;2023-09-19T12:46:19;1.40;;;0.98;;
13343;SDS011;6741;48.964;9.406;2023-09-19T12:48:50;0.95;;;0.80;;
13343;SDS011;6741;48.964;9.406;2023-09-19T12:51:45;0.75;;;0.75;;
13343;SDS011;6741;48.964;9.406;2023-09-19T12:54:13;2.58;;;1.02;;
13343;SDS011;6741;48.964;9.406;2023-09-19T12:56:41;2.05;;;0.80;;
13343;SDS011;6741;48.964;9.406;2023-09-19T12:59:11;0.50;;;0.50;;
13343;SDS011;6741;48.964;9.406;2023-09-19T13:01:39;2.08;;;0.88;;
13343;SDS011;6741;48.964;9.406;2023-09-19T13:04:14;1.20;;;0.90;;
13343;SDS011;6741;48.964;9.406;2023-09-19T13:06:46;0.95;;;0.80;;
13343;SDS011;6741;48.964;9.406;2023-09-19T13:09:14;1.13;;;0.90;;
13343;SDS011;6741;48.964;9.406;2023-09-19T13:11:42;3.67;;;1.05;;
13343;SDS011;6741;48.964;9.406;2023-09-19T13:14:13;1.02;;;0.80;;
13343;SDS011;6741;48.964;9.406;2023-09-19T13:16:52;0.85;;;0.80;;
13343;SDS011;6741;48.964;9.406;2023-09-19T13:19:36;0.75;;;0.73;;
13343;SDS011;6741;48.964;9.406;2023-09-19T13:25:07;1.40;;;1.00;;
13343;SDS011;6741;48.964;9.406;2023-09-19T13:27:39;1.30;;;0.82;;
13343;SDS011;6741;48.964;9.406;2023-09-19T13:30:06;1.77;;;0.90;;
13343;SDS011;6741;48.964;9.406;2023-09-19T13:32:34;0.88;;;0.82;;
13343;SDS011;6741;48.964;9.406;2023-09-19T13:35:01;1.10;;;1.00;;
13343;SDS011;6741;48.964;9.406;2023-09-19T13:37:28;3.33;;;0.80;;
13343;SDS011;6741;48.964;9.406;2023-09-19T13:39:56;4.18;;;0.90;;
13343;SDS011;6741;48.964;9.406;2023-09-19T13:42:25;2.60;;;0.88;;
13343;SDS011;6741;48.964;9.406;2023-09-19T13:44:55;4.15;;;1.10;;
13343;SDS011;6741;48.964;9.406;2023-09-19T13:47:22;1.13;;;0.90;;
13343;SDS011;6741;48.964;9.406;2023-09-19T13:49:51;1.30;;;0.80;;
13343;SDS011;6741;48.964;9.406;2023-09-19T13:52:19;1.52;;;0.90;;
13343;SDS011;6741;48.964;9.406;2023-09-19T13:54:46;0.98;;;0.77;;
13343;SDS011;6741;48.964;9.406;2023-09-19T13:57:15;1.48;;;0.95;;
13343;SDS011;6741;48.964;9.406;2023-09-19T13:59:42;1.67;;;1.10;;
13343;SDS011;6741;48.964;9.406;2023-09-19T14:02:09;1.42;;;1.30;;
13343;SDS011;6741;48.964;9.406;2023-09-19T14:04:39;1.17;;;0.82;;
13343;SDS011;6741;48.964;9.406;2023-09-19T14:07:06;1.65;;;0.98;;
13343;SDS011;6741;48.964;9.406;2023-09-19T14:09:34;1.40;;;0.95;;
13343;SDS011;6741;48.964;9.406;2023-09-19T14:12:01;1.00;;;0.95;;
13343;SDS011;6741;48.964;9.406;2023-09-19T14:14:33;1.58;;;0.77;;
13343;SDS011;6741;48.964;9.406;2023-09-19T14:17:00;1.15;;;0.90;;
13343;SDS011;6741;48.964;9.406;2023-09-19T14:19:26;1.70;;;1.08;;
13343;SDS011;6741;48.964;9.406;2023-09-19T14:21:53;2.65;;;0.82;;
13343;SDS011;6741;48.964;9.406;2023-09-19T14:24:21;0.85;;;0.85;;
13343;SDS011;6741;48.964;9.406;2023-09-19T14:26:48;1.10;;;0.98;;
13343;SDS011;6741;48.964;9.406;2023-09-19T14:29:15;1.13;;;0.95;;
13343;SDS011;6741;48.964;9.406;2023-09-19T14:31:44;0.68;;;0.63;;
13343;SDS011;6741;48.964;9.406;2023-09-19T14:34:11;1.17;;;0.80;;
13343;SDS011;6741;48.964;9.406;2023-09-19T14:36:38;1.45;;;1.00;;
13343;SDS011;6741;48.964;9.406;2023-09-19T14:39:05;1.13;;;0.82;;
13343;SDS011;6741;48.964;9.406;2023-09-19T14:41:33;1.67;;;1.17;;
13343;SDS011;6741;48.964;9.406;2023-09-19T14:44:01;1.48;;;1.00;;
13343;SDS011;6741;48.964;9.406;2023-09-19T14:46:30;0.93;;;0.80;;
13343;SDS011;6741;48.964;9.406;2023-09-19T14:48:58;1.30;;;1.05;;
13343;SDS011;6741;48.964;9.406;2023-09-19T14:51:28;1.30;;;0.80;;
13343;SDS011;6741;48.964;9.406;2023-09-19T14:53:56;1.10;;;0.80;;
13343;SDS011;6741;48.964;9.406;2023-09-19T14:56:23;0.68;;;0.60;;
13343;SDS011;6741;48.964;9.406;2023-09-19T14:58:51;1.10;;;1.00;;
13343;SDS011;6741;48.964;9.406;2023-09-19T15:01:18;1.17;;;0.80;;
13343;SDS011;6741;48.964;9.406;2023-09-19T15:03:47;0.60;;;0.60;;
13343;SDS011;6741;48.964;9.406;2023-09-19T15:06:16;0.70;;;0.70;;
13343;SDS011;6741;48.964;9.406;2023-09-19T15:08:48;1.10;;;1.00;;
13343;SDS011;6741;48.964;9.406;2023-09-19T15:11:18;1.23;;;0.90;;
13343;SDS011;6741;48.964;9.406;2023-09-19T15:13:50;1.65;;;0.70;;
13343;SDS011;6741;48.964;9.406;2023-09-19T15:16:19;1.10;;;0.95;;
13343;SDS011;6741;48.964;9.406;2023-09-19T15:18:47;1.67;;;1.10;;
13343;SDS011;6741;48.964;9.406;2023-09-19T15:21:14;0.65;;;0.65;;
13343;SDS011;6741;48.964;9.406;2023-09-19T15:23:43;1.10;;;1.00;;
13343;SDS011;6741;48.964;9.406;2023-09-19T15:26:11;0.75;;;0.75;;
13343;SDS011;6741;48.964;9.406;2023-09-19T15:28:39;0.70;;;0.70;;
13343;SDS011;6741;48.964;9.406;2023-09-19T15:31:07;0.95;;;0.80;;
13343;SDS011;6741;48.964;9.406;2023-09-19T15:33:36;2.35;;;0.95;;
13343;SDS011;6741;48.964;9.406;2023-09-19T15:36:04;1.05;;;0.88;;
13343;SDS011;6741;48.964;9.406;2023-09-19T15:38:32;0.60;;;0.60;;
13343;SDS011;6741;48.964;9.406;2023-09-19T15:41:16;0.90;;;0.80;;
13343;SDS011;6741;48.964;9.406;2023-09-19T15:43:46;1.17;;;0.88;;